Sekuruwe, South Africa
Current Conditions -  °F | °C
As of 8:00 PM on Tuesday 21 Oct 2014 (Local Time) from FAPP Reporting Station
Clear Clear  
Wind Chill: 61°   Ceiling: Unl
Heat Index: 61°   Visibility: 6mi
Dew Point: 50°   Wind: 8mph
Humidity: 68%   Direction: 60°ENE
Pressure: 30.27"   Gusts: NA
Location:  23.95°S, 28.93°E
Report Text: FAPP 211800Z 06007KT CAVOK 16/10 Q1025 NOSIG
Loading
Personal Weather Stations






























Interactive Weather Map
Tropical Storm Tracking
New forecast layout! Learn more

10-Day Weather Forecast

Advertisements
Track Severe Weather on mobile